Decoded Metar for PANN (NENANA in AK, USA) (IATA:ENN) | Meteo·Mobile Aviation Weather
aviador You're here:

PANN Decoded Metar

NENANA in AK, USA
Report Time2019-04-23 15:53:00
UTC Time2019-04-23 16:24:10
Flight Rules vfr VFR
Wind240° at 08 Gusting to 18 kt
W.Decomp.*RWY 22: 8.0 kt HW 0.1 kt LCW
Visibility9999 m
Phenomena:N/A
Clouds:Overcast 085 Hf
Expected CloudBase > 1,600 ft AGL from Temp-Dew spread
Ceiling8,500 ft
Temp-1°C (ISA -15)
Dew Point-5°C (75% RH)
AAT-6.5°C
QNH1003 hPa
Density Alt-1,106 ft
Elevation361 ft
Report Wrong Elevation
Raw Report
PANN 231553Z AUTO 24008G18KT 210V280 10SM OVC085 M01/M05 A2962 RMK
AO2 SLP039 T10111050 TSNO $=

Extra information for PANN:More info

Metar Taf Metar & Taf Last 4 Metars F.Rules Stats Wind Profile Meteogram Temp Stats Airport Information Weather charts Add Link Nearby VenuesMetar ALERT Operation Metar Decoded Social comments

AIRNAV info for PANN